sensor_id;sensor_type;location;lat;lon;timestamp;temperature;humidity
4054;DHT22;2042;47.956;9.222;2022-10-13T00:31:22;11.70;19.30
4054;DHT22;2042;47.956;9.222;2022-10-13T00:36:15;11.70;20.20
4054;DHT22;2042;47.956;9.222;2022-10-13T00:53:43;11.60;17.20
4054;DHT22;2042;47.956;9.222;2022-10-13T00:56:12;11.70;18.10
4054;DHT22;2042;47.956;9.222;2022-10-13T00:58:39;11.70;18.40
4054;DHT22;2042;47.956;9.222;2022-10-13T01:08:28;11.60;13.20
4054;DHT22;2042;47.956;9.222;2022-10-13T02:15:20;11.30;15.80
4054;DHT22;2042;47.956;9.222;2022-10-13T02:22:44;11.20;14.40
4054;DHT22;2042;47.956;9.222;2022-10-13T02:25:11;11.30;15.30
4054;DHT22;2042;47.956;9.222;2022-10-13T02:27:37;11.20;14.60
4054;DHT22;2042;47.956;9.222;2022-10-13T02:30:03;11.30;15.80
4054;DHT22;2042;47.956;9.222;2022-10-13T03:21:25;11.20;15.90
4054;DHT22;2042;47.956;9.222;2022-10-13T03:23:51;11.30;17.60
4054;DHT22;2042;47.956;9.222;2022-10-13T03:28:48;11.10;19.10
4054;DHT22;2042;47.956;9.222;2022-10-13T04:35:11;11.20;21.30
4054;DHT22;2042;47.956;9.222;2022-10-13T05:31:33;10.90;23.80
4054;DHT22;2042;47.956;9.222;2022-10-13T05:38:59;10.80;25.30
4054;DHT22;2042;47.956;9.222;2022-10-13T06:08:59;10.90;30.00
4054;DHT22;2042;47.956;9.222;2022-10-13T06:21:11;11.30;25.00
4054;DHT22;2042;47.956;9.222;2022-10-13T06:23:38;11.50;26.00
4054;DHT22;2042;47.956;9.222;2022-10-13T06:28:34;11.70;7.00
4054;DHT22;2042;47.956;9.222;2022-10-13T06:31:03;12.30;1.50
4054;DHT22;2042;47.956;9.222;2022-10-13T06:33:29;12.20;1.00
4054;DHT22;2042;47.956;9.222;2022-10-13T06:35:55;12.30;1.00
4054;DHT22;2042;47.956;9.222;2022-10-13T06:38:20;12.30;1.00
4054;DHT22;2042;47.956;9.222;2022-10-13T06:40:46;12.40;1.00
4054;DHT22;2042;47.956;9.222;2022-10-13T06:43:12;12.00;1.00
4054;DHT22;2042;47.956;9.222;2022-10-13T06:45:38;12.90;1.00
4054;DHT22;2042;47.956;9.222;2022-10-13T06:48:05;12.40;1.00
4054;DHT22;2042;47.956;9.222;2022-10-13T06:50:31;12.60;1.00
4054;DHT22;2042;47.956;9.222;2022-10-13T06:52:57;12.30;1.00
4054;DHT22;2042;47.956;9.222;2022-10-13T06:55:22;12.70;1.00
4054;DHT22;2042;47.956;9.222;2022-10-13T06:57:48;13.10;1.00
4054;DHT22;2042;47.956;9.222;2022-10-13T07:00:14;13.10;1.00
4054;DHT22;2042;47.956;9.222;2022-10-13T07:02:39;12.70;1.00
4054;DHT22;2042;47.956;9.222;2022-10-13T07:05:05;13.30;1.00
4054;DHT22;2042;47.956;9.222;2022-10-13T07:07:31;13.50;1.00
4054;DHT22;2042;47.956;9.222;2022-10-13T07:09:57;13.60;1.00
4054;DHT22;2042;47.956;9.222;2022-10-13T07:12:22;13.60;1.00
4054;DHT22;2042;47.956;9.222;2022-10-13T07:14:48;13.90;1.00
4054;DHT22;2042;47.956;9.222;2022-10-13T07:17:14;14.00;1.00
4054;DHT22;2042;47.956;9.222;2022-10-13T07:19:39;14.30;1.00
4054;DHT22;2042;47.956;9.222;2022-10-13T07:22:05;14.50;1.00
4054;DHT22;2042;47.956;9.222;2022-10-13T07:24:31;14.70;1.00
4054;DHT22;2042;47.956;9.222;2022-10-13T07:26:57;15.20;1.00
4054;DHT22;2042;47.956;9.222;2022-10-13T07:29:22;14.50;1.00
4054;DHT22;2042;47.956;9.222;2022-10-13T07:31:48;14.80;1.00
4054;DHT22;2042;47.956;9.222;2022-10-13T07:34:14;14.50;1.00
4054;DHT22;2042;47.956;9.222;2022-10-13T07:36:40;14.60;1.00
4054;DHT22;2042;47.956;9.222;2022-10-13T07:39:07;14.70;1.00
4054;DHT22;2042;47.956;9.222;2022-10-13T07:41:34;15.10;1.00
4054;DHT22;2042;47.956;9.222;2022-10-13T07:44:00;15.70;1.00
4054;DHT22;2042;47.956;9.222;2022-10-13T07:46:26;15.90;1.00
4054;DHT22;2042;47.956;9.222;2022-10-13T07:48:52;15.80;1.00
4054;DHT22;2042;47.956;9.222;2022-10-13T07:51:19;15.90;1.00
4054;DHT22;2042;47.956;9.222;2022-10-13T07:53:46;16.30;1.00
4054;DHT22;2042;47.956;9.222;2022-10-13T07:56:13;16.90;1.00
4054;DHT22;2042;47.956;9.222;2022-10-13T07:58:42;17.20;1.00
4054;DHT22;2042;47.956;9.222;2022-10-13T08:01:08;17.00;1.00
4054;DHT22;2042;47.956;9.222;2022-10-13T08:03:34;17.10;1.00
4054;DHT22;2042;47.956;9.222;2022-10-13T08:06:01;17.30;1.00
4054;DHT22;2042;47.956;9.222;2022-10-13T08:08:28;17.00;1.00
4054;DHT22;2042;47.956;9.222;2022-10-13T08:10:54;16.90;1.00
4054;DHT22;2042;47.956;9.222;2022-10-13T08:13:24;16.70;1.00
4054;DHT22;2042;47.956;9.222;2022-10-13T08:15:50;16.60;1.00
4054;DHT22;2042;47.956;9.222;2022-10-13T08:18:16;16.60;1.00
4054;DHT22;2042;47.956;9.222;2022-10-13T08:20:43;16.50;1.00
4054;DHT22;2042;47.956;9.222;2022-10-13T08:23:11;16.50;1.00
4054;DHT22;2042;47.956;9.222;2022-10-13T08:25:41;16.20;1.00
4054;DHT22;2042;47.956;9.222;2022-10-13T08:28:18;16.00;1.00
4054;DHT22;2042;47.956;9.222;2022-10-13T08:30:44;15.70;1.00
4054;DHT22;2042;47.956;9.222;2022-10-13T08:33:10;15.50;1.00
4054;DHT22;2042;47.956;9.222;2022-10-13T08:35:35;15.60;1.00
4054;DHT22;2042;47.956;9.222;2022-10-13T08:38:01;15.90;1.00
4054;DHT22;2042;47.956;9.222;2022-10-13T08:40:27;15.90;1.00
4054;DHT22;2042;47.956;9.222;2022-10-13T09:20:43;16.20;1.00
4054;DHT22;2042;47.956;9.222;2022-10-13T11:27:27;16.80;1.00
4054;DHT22;2042;47.956;9.222;2022-10-13T11:30:03;16.70;1.00
4054;DHT22;2042;47.956;9.222;2022-10-13T11:37:34;17.20;1.00
4054;DHT22;2042;47.956;9.222;2022-10-13T11:40:34;17.40;1.00
4054;DHT22;2042;47.956;9.222;2022-10-13T11:48:52;17.80;1.00
4054;DHT22;2042;47.956;9.222;2022-10-13T11:54:35;18.10;1.00
4054;DHT22;2042;47.956;9.222;2022-10-13T11:57:02;18.30;1.00
4054;DHT22;2042;47.956;9.222;2022-10-13T11:59:34;18.30;1.00
4054;DHT22;2042;47.956;9.222;2022-10-13T12:04:37;18.20;1.00
4054;DHT22;2042;47.956;9.222;2022-10-13T12:07:09;18.30;1.00
4054;DHT22;2042;47.956;9.222;2022-10-13T12:09:52;18.10;1.00
4054;DHT22;2042;47.956;9.222;2022-10-13T12:12:19;18.00;1.00
4054;DHT22;2042;47.956;9.222;2022-10-13T12:14:48;17.90;1.00
4054;DHT22;2042;47.956;9.222;2022-10-13T12:19:56;17.80;1.00
4054;DHT22;2042;47.956;9.222;2022-10-13T12:22:22;17.70;1.00
4054;DHT22;2042;47.956;9.222;2022-10-13T12:25:03;17.60;1.00
4054;DHT22;2042;47.956;9.222;2022-10-13T12:27:31;17.50;1.00
4054;DHT22;2042;47.956;9.222;2022-10-13T12:30:00;17.50;1.00
4054;DHT22;2042;47.956;9.222;2022-10-13T12:32:29;17.60;1.00
4054;DHT22;2042;47.956;9.222;2022-10-13T12:34:55;18.20;1.00
4054;DHT22;2042;47.956;9.222;2022-10-13T12:37:34;18.90;1.00
4054;DHT22;2042;47.956;9.222;2022-10-13T12:40:01;19.40;1.00
4054;DHT22;2042;47.956;9.222;2022-10-13T12:42:34;19.90;1.00
4054;DHT22;2042;47.956;9.222;2022-10-13T12:45:01;20.40;1.00
4054;DHT22;2042;47.956;9.222;2022-10-13T12:47:48;21.20;1.00
4054;DHT22;2042;47.956;9.222;2022-10-13T12:55:30;21.90;1.00
4054;DHT22;2042;47.956;9.222;2022-10-13T12:57:56;21.40;1.00
4054;DHT22;2042;47.956;9.222;2022-10-13T13:00:24;21.00;1.00
4054;DHT22;2042;47.956;9.222;2022-10-13T13:03:01;20.60;1.00
4054;DHT22;2042;47.956;9.222;2022-10-13T13:07:56;20.10;1.00
4054;DHT22;2042;47.956;9.222;2022-10-13T13:10:22;20.30;1.00
4054;DHT22;2042;47.956;9.222;2022-10-13T13:12:48;20.30;1.00
4054;DHT22;2042;47.956;9.222;2022-10-13T13:17:52;20.00;1.00
4054;DHT22;2042;47.956;9.222;2022-10-13T13:20:36;19.70;1.00
4054;DHT22;2042;47.956;9.222;2022-10-13T13:23:02;19.40;1.00
4054;DHT22;2042;47.956;9.222;2022-10-13T13:25:28;19.00;1.00
4054;DHT22;2042;47.956;9.222;2022-10-13T13:27:53;18.80;1.00
4054;DHT22;2042;47.956;9.222;2022-10-13T13:30:22;18.60;1.00
4054;DHT22;2042;47.956;9.222;2022-10-13T13:32:48;18.40;1.00
4054;DHT22;2042;47.956;9.222;2022-10-13T13:35:14;18.40;1.00
4054;DHT22;2042;47.956;9.222;2022-10-13T13:37:45;18.40;1.00
4054;DHT22;2042;47.956;9.222;2022-10-13T13:40:21;18.50;1.00
4054;DHT22;2042;47.956;9.222;2022-10-13T13:42:47;18.70;1.00
4054;DHT22;2042;47.956;9.222;2022-10-13T13:45:14;18.70;1.00
4054;DHT22;2042;47.956;9.222;2022-10-13T13:47:41;18.70;1.00
4054;DHT22;2042;47.956;9.222;2022-10-13T13:50:20;18.40;1.00
4054;DHT22;2042;47.956;9.222;2022-10-13T13:52:46;18.20;1.00
4054;DHT22;2042;47.956;9.222;2022-10-13T13:55:12;18.20;1.00
4054;DHT22;2042;47.956;9.222;2022-10-13T13:57:38;18.30;1.00
4054;DHT22;2042;47.956;9.222;2022-10-13T14:00:04;18.50;1.00
4054;DHT22;2042;47.956;9.222;2022-10-13T14:02:30;18.50;1.00
4054;DHT22;2042;47.956;9.222;2022-10-13T14:04:56;18.60;1.00
4054;DHT22;2042;47.956;9.222;2022-10-13T14:07:21;18.60;1.00
4054;DHT22;2042;47.956;9.222;2022-10-13T14:09:47;18.60;1.00
4054;DHT22;2042;47.956;9.222;2022-10-13T14:12:13;18.20;1.00
4054;DHT22;2042;47.956;9.222;2022-10-13T14:14:38;17.90;1.00
4054;DHT22;2042;47.956;9.222;2022-10-13T14:17:04;17.70;1.00
4054;DHT22;2042;47.956;9.222;2022-10-13T14:19:33;17.70;1.00
4054;DHT22;2042;47.956;9.222;2022-10-13T14:21:59;17.60;1.00
4054;DHT22;2042;47.956;9.222;2022-10-13T14:24:26;17.40;1.00
4054;DHT22;2042;47.956;9.222;2022-10-13T14:26:52;17.30;1.00
4054;DHT22;2042;47.956;9.222;2022-10-13T14:29:17;17.20;1.00
4054;DHT22;2042;47.956;9.222;2022-10-13T14:31:43;17.20;1.00
4054;DHT22;2042;47.956;9.222;2022-10-13T14:34:09;17.10;1.00
4054;DHT22;2042;47.956;9.222;2022-10-13T14:36:35;17.10;1.00
4054;DHT22;2042;47.956;9.222;2022-10-13T14:39:00;16.90;1.00
4054;DHT22;2042;47.956;9.222;2022-10-13T14:41:26;16.90;1.00
4054;DHT22;2042;47.956;9.222;2022-10-13T14:43:53;16.70;1.00
4054;DHT22;2042;47.956;9.222;2022-10-13T14:46:19;16.60;1.00
4054;DHT22;2042;47.956;9.222;2022-10-13T14:48:44;16.50;1.00
4054;DHT22;2042;47.956;9.222;2022-10-13T14:53:39;16.40;1.00
4054;DHT22;2042;47.956;9.222;2022-10-13T14:56:24;16.30;1.00
4054;DHT22;2042;47.956;9.222;2022-10-13T14:58:51;16.20;1.00
4054;DHT22;2042;47.956;9.222;2022-10-13T15:01:18;16.20;1.00
4054;DHT22;2042;47.956;9.222;2022-10-13T15:16:03;15.70;1.00
4054;DHT22;2042;47.956;9.222;2022-10-13T15:23:27;15.70;1.00
4054;DHT22;2042;47.956;9.222;2022-10-13T15:25:55;15.80;1.00
4054;DHT22;2042;47.956;9.222;2022-10-13T15:28:22;15.50;1.00
4054;DHT22;2042;47.956;9.222;2022-10-13T15:30:48;15.20;1.00
4054;DHT22;2042;47.956;9.222;2022-10-13T15:52:55;15.00;1.00
4054;DHT22;2042;47.956;9.222;2022-10-13T15:55:20;15.00;1.00
4054;DHT22;2042;47.956;9.222;2022-10-13T15:57:46;14.90;1.00
4054;DHT22;2042;47.956;9.222;2022-10-13T16:00:13;14.70;1.00
4054;DHT22;2042;47.956;9.222;2022-10-13T16:02:39;14.50;1.00
4054;DHT22;2042;47.956;9.222;2022-10-13T16:05:07;14.30;1.00
4054;DHT22;2042;47.956;9.222;2022-10-13T16:07:33;14.20;1.00
4054;DHT22;2042;47.956;9.222;2022-10-13T16:09:59;14.10;1.00
4054;DHT22;2042;47.956;9.222;2022-10-13T16:12:27;14.00;1.00
4054;DHT22;2042;47.956;9.222;2022-10-13T16:14:53;13.90;1.00
4054;DHT22;2042;47.956;9.222;2022-10-13T16:17:19;13.80;1.00
4054;DHT22;2042;47.956;9.222;2022-10-13T16:19:45;13.70;1.00
4054;DHT22;2042;47.956;9.222;2022-10-13T16:22:12;13.70;1.00
4054;DHT22;2042;47.956;9.222;2022-10-13T16:24:38;13.60;1.00
4054;DHT22;2042;47.956;9.222;2022-10-13T16:27:03;13.60;1.00
4054;DHT22;2042;47.956;9.222;2022-10-13T16:29:29;13.50;1.00
4054;DHT22;2042;47.956;9.222;2022-10-13T16:31:55;13.50;1.00
4054;DHT22;2042;47.956;9.222;2022-10-13T16:34:21;13.50;1.00
4054;DHT22;2042;47.956;9.222;2022-10-13T16:36:47;13.40;1.00
4054;DHT22;2042;47.956;9.222;2022-10-13T16:39:13;13.40;1.00
4054;DHT22;2042;47.956;9.222;2022-10-13T16:41:39;13.50;1.00
4054;DHT22;2042;47.956;9.222;2022-10-13T16:44:04;13.30;1.00
4054;DHT22;2042;47.956;9.222;2022-10-13T16:46:30;13.30;1.00
4054;DHT22;2042;47.956;9.222;2022-10-13T16:48:57;13.30;1.00
4054;DHT22;2042;47.956;9.222;2022-10-13T16:51:24;13.30;1.00
4054;DHT22;2042;47.956;9.222;2022-10-13T16:53:52;13.30;1.00
4054;DHT22;2042;47.956;9.222;2022-10-13T16:56:19;13.30;1.00
4054;DHT22;2042;47.956;9.222;2022-10-13T16:59:06;13.20;1.00
4054;DHT22;2042;47.956;9.222;2022-10-13T17:01:33;13.30;1.00
4054;DHT22;2042;47.956;9.222;2022-10-13T17:03:59;13.20;1.00
4054;DHT22;2042;47.956;9.222;2022-10-13T17:06:26;13.20;1.00
4054;DHT22;2042;47.956;9.222;2022-10-13T17:08:53;13.10;1.00
4054;DHT22;2042;47.956;9.222;2022-10-13T17:11:21;13.20;1.00
4054;DHT22;2042;47.956;9.222;2022-10-13T17:13:48;13.10;1.00
4054;DHT22;2042;47.956;9.222;2022-10-13T17:16:14;13.10;1.00
4054;DHT22;2042;47.956;9.222;2022-10-13T17:18:40;13.10;1.00
4054;DHT22;2042;47.956;9.222;2022-10-13T17:21:08;13.10;1.00
4054;DHT22;2042;47.956;9.222;2022-10-13T17:23:35;13.10;1.00
4054;DHT22;2042;47.956;9.222;2022-10-13T17:26:07;13.10;1.70
4054;DHT22;2042;47.956;9.222;2022-10-13T17:28:34;13.00;1.00
4054;DHT22;2042;47.956;9.222;2022-10-13T17:31:01;13.10;1.00
4054;DHT22;2042;47.956;9.222;2022-10-13T17:33:30;13.00;1.20
4054;DHT22;2042;47.956;9.222;2022-10-13T17:36:09;13.00;1.20
4054;DHT22;2042;47.956;9.222;2022-10-13T17:38:36;12.90;2.20
4054;DHT22;2042;47.956;9.222;2022-10-13T17:41:04;12.90;2.80
4054;DHT22;2042;47.956;9.222;2022-10-13T17:43:31;12.80;3.70
4054;DHT22;2042;47.956;9.222;2022-10-13T17:48:36;12.70;5.50
4054;DHT22;2042;47.956;9.222;2022-10-13T17:51:04;12.60;6.10
4054;DHT22;2042;47.956;9.222;2022-10-13T17:53:30;12.60;6.30
4054;DHT22;2042;47.956;9.222;2022-10-13T17:55:59;12.70;7.00
4054;DHT22;2042;47.956;9.222;2022-10-13T17:58:25;12.60;7.70
4054;DHT22;2042;47.956;9.222;2022-10-13T18:00:51;12.60;8.30
4054;DHT22;2042;47.956;9.222;2022-10-13T18:03:16;12.60;10.20
4054;DHT22;2042;47.956;9.222;2022-10-13T18:05:42;12.60;10.10
4054;DHT22;2042;47.956;9.222;2022-10-13T18:08:08;12.50;10.70
4054;DHT22;2042;47.956;9.222;2022-10-13T18:10:34;12.50;11.70
4054;DHT22;2042;47.956;9.222;2022-10-13T18:13:00;12.50;12.10
4054;DHT22;2042;47.956;9.222;2022-10-13T18:15:25;12.50;13.50
4054;DHT22;2042;47.956;9.222;2022-10-13T18:17:51;12.50;12.60
4054;DHT22;2042;47.956;9.222;2022-10-13T18:20:17;12.70;12.80
4054;DHT22;2042;47.956;9.222;2022-10-13T18:22:42;12.50;12.80
4054;DHT22;2042;47.956;9.222;2022-10-13T18:25:08;12.50;12.80
4054;DHT22;2042;47.956;9.222;2022-10-13T18:27:34;12.50;13.90
4054;DHT22;2042;47.956;9.222;2022-10-13T18:29:59;12.50;13.40
4054;DHT22;2042;47.956;9.222;2022-10-13T18:32:25;12.50;12.80
4054;DHT22;2042;47.956;9.222;2022-10-13T18:34:53;12.60;12.90
4054;DHT22;2042;47.956;9.222;2022-10-13T18:37:20;12.50;13.00
4054;DHT22;2042;47.956;9.222;2022-10-13T18:39:46;12.60;14.00
4054;DHT22;2042;47.956;9.222;2022-10-13T18:42:13;12.40;15.70
4054;DHT22;2042;47.956;9.222;2022-10-13T18:44:39;12.30;16.30
4054;DHT22;2042;47.956;9.222;2022-10-13T18:47:05;12.30;17.40
4054;DHT22;2042;47.956;9.222;2022-10-13T18:49:31;12.30;18.80
4054;DHT22;2042;47.956;9.222;2022-10-13T18:51:58;12.20;18.70
4054;DHT22;2042;47.956;9.222;2022-10-13T18:54:25;12.20;19.80
4054;DHT22;2042;47.956;9.222;2022-10-13T18:56:51;12.30;20.10
4054;DHT22;2042;47.956;9.222;2022-10-13T18:59:17;12.20;22.20
4054;DHT22;2042;47.956;9.222;2022-10-13T19:01:43;12.30;22.30
4054;DHT22;2042;47.956;9.222;2022-10-13T19:04:09;12.20;21.60
4054;DHT22;2042;47.956;9.222;2022-10-13T19:06:37;12.20;23.10
4054;DHT22;2042;47.956;9.222;2022-10-13T19:09:10;12.20;25.30
4054;DHT22;2042;47.956;9.222;2022-10-13T19:11:36;12.00;24.80
4054;DHT22;2042;47.956;9.222;2022-10-13T19:14:03;12.20;25.70
4054;DHT22;2042;47.956;9.222;2022-10-13T19:16:33;12.10;25.80
4054;DHT22;2042;47.956;9.222;2022-10-13T19:18:59;12.20;27.70
4054;DHT22;2042;47.956;9.222;2022-10-13T19:21:25;12.00;24.60
4054;DHT22;2042;47.956;9.222;2022-10-13T19:23:51;12.10;28.30
4054;DHT22;2042;47.956;9.222;2022-10-13T19:26:20;12.10;27.00
4054;DHT22;2042;47.956;9.222;2022-10-13T19:28:48;12.10;27.40
4054;DHT22;2042;47.956;9.222;2022-10-13T19:31:20;12.10;27.00
4054;DHT22;2042;47.956;9.222;2022-10-13T19:33:46;12.10;26.70
4054;DHT22;2042;47.956;9.222;2022-10-13T19:36:40;12.10;27.10
4054;DHT22;2042;47.956;9.222;2022-10-13T19:39:10;12.10;28.00
4054;DHT22;2042;47.956;9.222;2022-10-13T19:41:38;12.00;28.50
4054;DHT22;2042;47.956;9.222;2022-10-13T19:44:03;12.10;28.60
4054;DHT22;2042;47.956;9.222;2022-10-13T19:46:30;12.00;29.10
4054;DHT22;2042;47.956;9.222;2022-10-13T19:48:56;11.90;30.40
4054;DHT22;2042;47.956;9.222;2022-10-13T19:51:21;11.90;31.10
4054;DHT22;2042;47.956;9.222;2022-10-13T20:06:18;11.60;38.50
4054;DHT22;2042;47.956;9.222;2022-10-13T20:08:44;11.70;34.10
4054;DHT22;2042;47.956;9.222;2022-10-13T20:11:13;11.70;35.80
4054;DHT22;2042;47.956;9.222;2022-10-13T20:16:08;11.60;36.70
4054;DHT22;2042;47.956;9.222;2022-10-13T20:18:34;11.60;36.60
4054;DHT22;2042;47.956;9.222;2022-10-13T20:21:04;11.60;36.30
4054;DHT22;2042;47.956;9.222;2022-10-13T20:23:31;11.60;34.50
4054;DHT22;2042;47.956;9.222;2022-10-13T20:26:04;11.80;37.20
4054;DHT22;2042;47.956;9.222;2022-10-13T20:28:30;11.70;35.90
4054;DHT22;2042;47.956;9.222;2022-10-13T20:30:56;11.70;35.10
4054;DHT22;2042;47.956;9.222;2022-10-13T20:33:22;11.70;36.50
4054;DHT22;2042;47.956;9.222;2022-10-13T20:35:48;11.80;37.30
4054;DHT22;2042;47.956;9.222;2022-10-13T20:38:14;11.50;37.30
4054;DHT22;2042;47.956;9.222;2022-10-13T20:40:39;11.60;39.80
4054;DHT22;2042;47.956;9.222;2022-10-13T20:43:05;11.60;38.10
4054;DHT22;2042;47.956;9.222;2022-10-13T20:45:30;11.60;41.90
4054;DHT22;2042;47.956;9.222;2022-10-13T20:47:56;11.70;37.20
4054;DHT22;2042;47.956;9.222;2022-10-13T20:50:22;11.80;38.50
4054;DHT22;2042;47.956;9.222;2022-10-13T20:52:47;11.60;39.10
4054;DHT22;2042;47.956;9.222;2022-10-13T20:55:13;11.60;38.40
4054;DHT22;2042;47.956;9.222;2022-10-13T20:57:39;11.60;39.30
4054;DHT22;2042;47.956;9.222;2022-10-13T21:04:57;11.50;41.50
4054;DHT22;2042;47.956;9.222;2022-10-13T21:09:49;11.20;44.40
4054;DHT22;2042;47.956;9.222;2022-10-13T21:12:15;11.60;45.20
4054;DHT22;2042;47.956;9.222;2022-10-13T21:14:41;11.60;44.50
4054;DHT22;2042;47.956;9.222;2022-10-13T21:36:43;11.70;50.90
4054;DHT22;2042;47.956;9.222;2022-10-13T22:01:23;11.90;43.00
4054;DHT22;2042;47.956;9.222;2022-10-13T22:03:52;11.80;42.90
4054;DHT22;2042;47.956;9.222;2022-10-13T22:06:19;11.80;44.00
4054;DHT22;2042;47.956;9.222;2022-10-13T22:08:47;11.70;44.10
4054;DHT22;2042;47.956;9.222;2022-10-13T22:13:41;12.00;44.20
4054;DHT22;2042;47.956;9.222;2022-10-13T22:16:16;11.70;42.40
4054;DHT22;2042;47.956;9.222;2022-10-13T22:18:43;11.70;41.10
4054;DHT22;2042;47.956;9.222;2022-10-13T22:21:17;11.60;41.30
4054;DHT22;2042;47.956;9.222;2022-10-13T22:23:43;11.60;41.50
4054;DHT22;2042;47.956;9.222;2022-10-13T22:26:10;11.60;41.30
4054;DHT22;2042;47.956;9.222;2022-10-13T22:28:36;11.60;41.50
4054;DHT22;2042;47.956;9.222;2022-10-13T22:31:07;11.50;41.60
4054;DHT22;2042;47.956;9.222;2022-10-13T22:33:34;11.50;43.00
4054;DHT22;2042;47.956;9.222;2022-10-13T22:36:11;11.40;43.80
4054;DHT22;2042;47.956;9.222;2022-10-13T22:38:37;11.50;43.70
4054;DHT22;2042;47.956;9.222;2022-10-13T22:41:04;11.50;43.20
4054;DHT22;2042;47.956;9.222;2022-10-13T22:43:31;11.50;42.80
4054;DHT22;2042;47.956;9.222;2022-10-13T22:45:56;11.40;41.30
4054;DHT22;2042;47.956;9.222;2022-10-13T22:48:22;11.40;41.50
4054;DHT22;2042;47.956;9.222;2022-10-13T22:50:48;11.40;41.00
4054;DHT22;2042;47.956;9.222;2022-10-13T22:53:14;11.40;40.20
4054;DHT22;2042;47.956;9.222;2022-10-13T22:55:40;11.40;39.80
4054;DHT22;2042;47.956;9.222;2022-10-13T22:58:06;11.40;39.70
4054;DHT22;2042;47.956;9.222;2022-10-13T23:00:36;11.40;39.80
4054;DHT22;2042;47.956;9.222;2022-10-13T23:03:02;11.40;40.20
4054;DHT22;2042;47.956;9.222;2022-10-13T23:05:28;11.40;40.20
4054;DHT22;2042;47.956;9.222;2022-10-13T23:07:54;11.50;40.60
4054;DHT22;2042;47.956;9.222;2022-10-13T23:10:20;11.50;40.80
4054;DHT22;2042;47.956;9.222;2022-10-13T23:12:45;11.40;40.80
4054;DHT22;2042;47.956;9.222;2022-10-13T23:15:11;11.40;40.90
4054;DHT22;2042;47.956;9.222;2022-10-13T23:17:36;11.40;40.80
4054;DHT22;2042;47.956;9.222;2022-10-13T23:20:03;11.50;40.90
4054;DHT22;2042;47.956;9.222;2022-10-13T23:22:28;11.40;40.50
4054;DHT22;2042;47.956;9.222;2022-10-13T23:24:54;11.40;39.80
4054;DHT22;2042;47.956;9.222;2022-10-13T23:27:20;11.40;40.80
4054;DHT22;2042;47.956;9.222;2022-10-13T23:29:45;11.40;31.60
4054;DHT22;2042;47.956;9.222;2022-10-13T23:32:11;11.30;30.10
4054;DHT22;2042;47.956;9.222;2022-10-13T23:34:37;11.30;28.90
4054;DHT22;2042;47.956;9.222;2022-10-13T23:37:02;11.30;28.50
4054;DHT22;2042;47.956;9.222;2022-10-13T23:39:28;11.30;28.50
4054;DHT22;2042;47.956;9.222;2022-10-13T23:41:54;11.30;28.40
4054;DHT22;2042;47.956;9.222;2022-10-13T23:44:20;11.20;28.10
4054;DHT22;2042;47.956;9.222;2022-10-13T23:46:45;11.20;27.70
4054;DHT22;2042;47.956;9.222;2022-10-13T23:49:12;11.20;27.40
4054;DHT22;2042;47.956;9.222;2022-10-13T23:51:40;11.20;27.00
4054;DHT22;2042;47.956;9.222;2022-10-13T23:54:06;11.20;26.90
4054;DHT22;2042;47.956;9.222;2022-10-13T23:56:32;11.20;26.90
4054;DHT22;2042;47.956;9.222;2022-10-13T23:58:59;11.10;26.60
